sensor_id;sensor_type;location;lat;lon;timestamp;P1;durP1;ratioP1;P2;durP2;ratioP2
4597;SDS011;62772;48.646;8.906;2023-03-15T00:04:15;7.07;;;4.27;;
4597;SDS011;62772;48.646;8.906;2023-03-15T00:09:15;8.40;;;4.10;;
4597;SDS011;62772;48.646;8.906;2023-03-15T00:14:16;9.47;;;3.70;;
4597;SDS011;62772;48.646;8.906;2023-03-15T00:19:17;9.83;;;3.83;;
4597;SDS011;62772;48.646;8.906;2023-03-15T00:24:18;5.53;;;3.00;;
4597;SDS011;62772;48.646;8.906;2023-03-15T00:29:18;7.30;;;2.93;;
4597;SDS011;62772;48.646;8.906;2023-03-15T00:34:19;7.17;;;3.20;;
4597;SDS011;62772;48.646;8.906;2023-03-15T00:39:25;11.67;;;3.40;;
4597;SDS011;62772;48.646;8.906;2023-03-15T00:44:26;12.83;;;3.77;;
4597;SDS011;62772;48.646;8.906;2023-03-15T00:49:27;8.97;;;3.37;;
4597;SDS011;62772;48.646;8.906;2023-03-15T00:54:27;4.37;;;2.80;;
4597;SDS011;62772;48.646;8.906;2023-03-15T00:59:28;6.47;;;3.27;;
4597;SDS011;62772;48.646;8.906;2023-03-15T01:04:34;5.37;;;2.90;;
4597;SDS011;62772;48.646;8.906;2023-03-15T01:09:35;6.43;;;2.53;;
4597;SDS011;62772;48.646;8.906;2023-03-15T01:14:35;10.10;;;3.33;;
4597;SDS011;62772;48.646;8.906;2023-03-15T01:19:38;8.47;;;2.90;;
4597;SDS011;62772;48.646;8.906;2023-03-15T01:24:39;7.50;;;2.60;;
4597;SDS011;62772;48.646;8.906;2023-03-15T01:29:39;6.87;;;2.30;;
4597;SDS011;62772;48.646;8.906;2023-03-15T01:34:41;7.63;;;2.50;;
4597;SDS011;62772;48.646;8.906;2023-03-15T01:39:42;7.53;;;3.00;;
4597;SDS011;62772;48.646;8.906;2023-03-15T01:50:01;5.23;;;2.43;;
4597;SDS011;62772;48.646;8.906;2023-03-15T01:55:07;4.83;;;2.40;;
4597;SDS011;62772;48.646;8.906;2023-03-15T02:00:15;4.90;;;2.70;;
4597;SDS011;62772;48.646;8.906;2023-03-15T02:05:25;3.50;;;2.50;;
4597;SDS011;62772;48.646;8.906;2023-03-15T02:15:44;4.07;;;2.67;;
4597;SDS011;62772;48.646;8.906;2023-03-15T02:20:57;6.90;;;2.53;;
4597;SDS011;62772;48.646;8.906;2023-03-15T02:31:22;5.67;;;3.17;;
4597;SDS011;62772;48.646;8.906;2023-03-15T02:36:23;6.33;;;3.10;;
4597;SDS011;62772;48.646;8.906;2023-03-15T02:41:27;5.23;;;2.90;;
4597;SDS011;62772;48.646;8.906;2023-03-15T02:46:34;7.40;;;3.30;;
4597;SDS011;62772;48.646;8.906;2023-03-15T02:51:37;14.43;;;3.63;;
4597;SDS011;62772;48.646;8.906;2023-03-15T02:56:37;10.40;;;3.00;;
4597;SDS011;62772;48.646;8.906;2023-03-15T03:01:38;7.53;;;3.23;;
4597;SDS011;62772;48.646;8.906;2023-03-15T03:06:39;6.83;;;3.43;;
4597;SDS011;62772;48.646;8.906;2023-03-15T03:11:43;10.57;;;3.33;;
4597;SDS011;62772;48.646;8.906;2023-03-15T03:16:44;8.90;;;3.60;;
4597;SDS011;62772;48.646;8.906;2023-03-15T03:21:45;8.10;;;3.20;;
4597;SDS011;62772;48.646;8.906;2023-03-15T03:26:46;7.73;;;3.50;;
4597;SDS011;62772;48.646;8.906;2023-03-15T03:31:49;6.13;;;3.83;;
4597;SDS011;62772;48.646;8.906;2023-03-15T03:36:50;7.77;;;4.03;;
4597;SDS011;62772;48.646;8.906;2023-03-15T03:41:59;7.93;;;3.60;;
4597;SDS011;62772;48.646;8.906;2023-03-15T03:46:59;12.13;;;4.10;;
4597;SDS011;62772;48.646;8.906;2023-03-15T03:52:02;10.97;;;4.33;;
4597;SDS011;62772;48.646;8.906;2023-03-15T03:57:04;13.73;;;4.20;;
4597;SDS011;62772;48.646;8.906;2023-03-15T04:02:08;10.23;;;4.13;;
4597;SDS011;62772;48.646;8.906;2023-03-15T04:07:10;10.60;;;3.97;;
4597;SDS011;62772;48.646;8.906;2023-03-15T04:12:13;9.03;;;4.33;;
4597;SDS011;62772;48.646;8.906;2023-03-15T04:17:17;8.70;;;4.40;;
4597;SDS011;62772;48.646;8.906;2023-03-15T04:22:17;7.13;;;4.63;;
4597;SDS011;62772;48.646;8.906;2023-03-15T04:27:47;8.83;;;4.57;;
4597;SDS011;62772;48.646;8.906;2023-03-15T04:33:15;13.43;;;6.00;;
4597;SDS011;62772;48.646;8.906;2023-03-15T04:38:32;9.30;;;4.73;;
4597;SDS011;62772;48.646;8.906;2023-03-15T04:43:56;10.60;;;4.33;;
4597;SDS011;62772;48.646;8.906;2023-03-15T04:49:12;8.37;;;5.10;;
4597;SDS011;62772;48.646;8.906;2023-03-15T04:54:26;9.40;;;5.10;;
4597;SDS011;62772;48.646;8.906;2023-03-15T04:59:45;11.40;;;4.70;;
4597;SDS011;62772;48.646;8.906;2023-03-15T05:05:04;11.90;;;5.83;;
4597;SDS011;62772;48.646;8.906;2023-03-15T05:10:24;15.40;;;5.00;;
4597;SDS011;62772;48.646;8.906;2023-03-15T05:15:41;12.00;;;5.23;;
4597;SDS011;62772;48.646;8.906;2023-03-15T05:21:11;9.30;;;5.30;;
4597;SDS011;62772;48.646;8.906;2023-03-15T05:26:30;19.23;;;6.00;;
4597;SDS011;62772;48.646;8.906;2023-03-15T05:31:45;12.50;;;6.07;;
4597;SDS011;62772;48.646;8.906;2023-03-15T05:37:10;9.17;;;5.73;;
4597;SDS011;62772;48.646;8.906;2023-03-15T05:42:31;13.00;;;6.93;;
4597;SDS011;62772;48.646;8.906;2023-03-15T05:47:58;13.40;;;6.10;;
4597;SDS011;62772;48.646;8.906;2023-03-15T05:53:18;15.67;;;7.20;;
4597;SDS011;62772;48.646;8.906;2023-03-15T05:58:30;13.33;;;6.87;;
4597;SDS011;62772;48.646;8.906;2023-03-15T06:03:59;18.03;;;8.10;;
4597;SDS011;62772;48.646;8.906;2023-03-15T06:09:04;14.13;;;7.63;;
4597;SDS011;62772;48.646;8.906;2023-03-15T06:14:05;18.73;;;7.87;;
4597;SDS011;62772;48.646;8.906;2023-03-15T06:19:14;22.30;;;8.40;;
4597;SDS011;62772;48.646;8.906;2023-03-15T06:24:15;17.17;;;7.53;;
4597;SDS011;62772;48.646;8.906;2023-03-15T06:29:16;19.10;;;7.87;;
4597;SDS011;62772;48.646;8.906;2023-03-15T06:34:19;19.67;;;8.00;;
4597;SDS011;62772;48.646;8.906;2023-03-15T06:39:20;17.80;;;7.43;;
4597;SDS011;62772;48.646;8.906;2023-03-15T06:44:21;15.40;;;7.13;;
4597;SDS011;62772;48.646;8.906;2023-03-15T06:49:26;15.40;;;7.60;;
4597;SDS011;62772;48.646;8.906;2023-03-15T06:54:27;14.37;;;7.50;;
4597;SDS011;62772;48.646;8.906;2023-03-15T06:59:28;21.03;;;8.10;;
4597;SDS011;62772;48.646;8.906;2023-03-15T07:04:28;15.20;;;6.57;;
4597;SDS011;62772;48.646;8.906;2023-03-15T07:09:28;20.23;;;7.23;;
4597;SDS011;62772;48.646;8.906;2023-03-15T07:14:29;12.00;;;5.97;;
4597;SDS011;62772;48.646;8.906;2023-03-15T07:19:29;22.83;;;6.20;;
4597;SDS011;62772;48.646;8.906;2023-03-15T07:24:30;16.27;;;6.17;;
4597;SDS011;62772;48.646;8.906;2023-03-15T07:29:30;16.73;;;6.40;;
4597;SDS011;62772;48.646;8.906;2023-03-15T07:34:31;11.03;;;6.17;;
4597;SDS011;62772;48.646;8.906;2023-03-15T07:39:31;14.70;;;5.60;;
4597;SDS011;62772;48.646;8.906;2023-03-15T07:44:32;11.33;;;5.63;;
4597;SDS011;62772;48.646;8.906;2023-03-15T07:49:32;12.27;;;6.13;;
4597;SDS011;62772;48.646;8.906;2023-03-15T07:54:33;17.83;;;6.00;;
4597;SDS011;62772;48.646;8.906;2023-03-15T07:59:34;11.60;;;6.00;;
4597;SDS011;62772;48.646;8.906;2023-03-15T08:04:34;13.37;;;5.57;;
4597;SDS011;62772;48.646;8.906;2023-03-15T08:09:35;10.00;;;5.10;;
4597;SDS011;62772;48.646;8.906;2023-03-15T08:14:35;10.13;;;4.90;;
4597;SDS011;62772;48.646;8.906;2023-03-15T08:19:36;17.00;;;5.50;;
4597;SDS011;62772;48.646;8.906;2023-03-15T08:24:36;16.17;;;5.87;;
4597;SDS011;62772;48.646;8.906;2023-03-15T08:29:37;12.80;;;5.60;;
4597;SDS011;62772;48.646;8.906;2023-03-15T08:34:37;7.60;;;5.13;;
4597;SDS011;62772;48.646;8.906;2023-03-15T08:39:38;14.60;;;4.50;;
4597;SDS011;62772;48.646;8.906;2023-03-15T08:44:38;12.23;;;4.33;;
4597;SDS011;62772;48.646;8.906;2023-03-15T08:49:39;6.70;;;4.23;;
4597;SDS011;62772;48.646;8.906;2023-03-15T08:54:39;9.00;;;3.97;;
4597;SDS011;62772;48.646;8.906;2023-03-15T08:59:40;7.83;;;3.53;;
4597;SDS011;62772;48.646;8.906;2023-03-15T09:04:40;9.57;;;3.00;;
4597;SDS011;62772;48.646;8.906;2023-03-15T09:09:40;11.17;;;3.37;;
4597;SDS011;62772;48.646;8.906;2023-03-15T09:14:47;6.47;;;2.90;;
4597;SDS011;62772;48.646;8.906;2023-03-15T09:19:47;5.47;;;3.30;;
4597;SDS011;62772;48.646;8.906;2023-03-15T09:24:47;5.97;;;3.30;;
4597;SDS011;62772;48.646;8.906;2023-03-15T09:29:48;4.97;;;2.90;;
4597;SDS011;62772;48.646;8.906;2023-03-15T09:34:49;4.83;;;2.67;;
4597;SDS011;62772;48.646;8.906;2023-03-15T09:39:50;2.70;;;2.07;;
4597;SDS011;62772;48.646;8.906;2023-03-15T09:44:53;8.17;;;2.53;;
4597;SDS011;62772;48.646;8.906;2023-03-15T09:50:21;4.70;;;2.50;;
4597;SDS011;62772;48.646;8.906;2023-03-15T09:55:25;7.83;;;2.63;;
4597;SDS011;62772;48.646;8.906;2023-03-15T10:00:43;8.37;;;3.60;;
4597;SDS011;62772;48.646;8.906;2023-03-15T10:05:48;4.80;;;2.30;;
4597;SDS011;62772;48.646;8.906;2023-03-15T10:11:28;4.87;;;2.83;;
4597;SDS011;62772;48.646;8.906;2023-03-15T10:16:29;10.90;;;2.67;;
4597;SDS011;62772;48.646;8.906;2023-03-15T10:26:53;5.73;;;2.53;;
4597;SDS011;62772;48.646;8.906;2023-03-15T10:31:54;7.63;;;3.20;;
4597;SDS011;62772;48.646;8.906;2023-03-15T10:36:54;3.60;;;2.47;;
4597;SDS011;62772;48.646;8.906;2023-03-15T10:41:56;5.00;;;2.43;;
4597;SDS011;62772;48.646;8.906;2023-03-15T10:47:04;3.50;;;2.00;;
4597;SDS011;62772;48.646;8.906;2023-03-15T10:52:23;3.50;;;2.20;;
4597;SDS011;62772;48.646;8.906;2023-03-15T10:57:27;5.73;;;2.40;;
4597;SDS011;62772;48.646;8.906;2023-03-15T11:02:32;2.20;;;1.50;;
4597;SDS011;62772;48.646;8.906;2023-03-15T11:07:35;4.60;;;1.70;;
4597;SDS011;62772;48.646;8.906;2023-03-15T11:12:36;3.67;;;2.00;;
4597;SDS011;62772;48.646;8.906;2023-03-15T11:17:40;5.80;;;2.00;;
4597;SDS011;62772;48.646;8.906;2023-03-15T11:22:43;3.07;;;1.87;;
4597;SDS011;62772;48.646;8.906;2023-03-15T11:27:43;5.13;;;2.10;;
4597;SDS011;62772;48.646;8.906;2023-03-15T11:32:51;3.40;;;1.70;;
4597;SDS011;62772;48.646;8.906;2023-03-15T11:38:03;2.23;;;1.50;;
4597;SDS011;62772;48.646;8.906;2023-03-15T11:48:58;3.20;;;1.80;;
4597;SDS011;62772;48.646;8.906;2023-03-15T11:54:13;2.60;;;1.60;;
4597;SDS011;62772;48.646;8.906;2023-03-15T11:59:27;5.00;;;1.60;;
4597;SDS011;62772;48.646;8.906;2023-03-15T12:14:36;2.47;;;1.33;;
4597;SDS011;62772;48.646;8.906;2023-03-15T12:19:36;4.57;;;1.40;;
4597;SDS011;62772;48.646;8.906;2023-03-15T12:24:37;3.63;;;1.50;;
4597;SDS011;62772;48.646;8.906;2023-03-15T12:29:38;2.93;;;1.77;;
4597;SDS011;62772;48.646;8.906;2023-03-15T12:34:55;2.50;;;1.40;;
4597;SDS011;62772;48.646;8.906;2023-03-15T12:39:59;4.80;;;1.73;;
4597;SDS011;62772;48.646;8.906;2023-03-15T12:55:47;3.40;;;1.87;;
4597;SDS011;62772;48.646;8.906;2023-03-15T13:00:48;2.20;;;1.57;;
4597;SDS011;62772;48.646;8.906;2023-03-15T13:05:58;2.70;;;1.90;;
4597;SDS011;62772;48.646;8.906;2023-03-15T13:16:12;3.93;;;1.93;;
4597;SDS011;62772;48.646;8.906;2023-03-15T13:32:14;3.40;;;2.10;;
4597;SDS011;62772;48.646;8.906;2023-03-15T13:37:21;7.10;;;2.20;;
4597;SDS011;62772;48.646;8.906;2023-03-15T13:42:28;4.60;;;2.40;;
4597;SDS011;62772;48.646;8.906;2023-03-15T13:47:28;5.17;;;2.10;;
4597;SDS011;62772;48.646;8.906;2023-03-15T13:52:29;4.43;;;2.37;;
4597;SDS011;62772;48.646;8.906;2023-03-15T13:57:30;3.83;;;2.43;;
4597;SDS011;62772;48.646;8.906;2023-03-15T14:02:35;5.33;;;2.93;;
4597;SDS011;62772;48.646;8.906;2023-03-15T14:07:49;4.90;;;2.43;;
4597;SDS011;62772;48.646;8.906;2023-03-15T14:12:57;5.63;;;2.20;;
4597;SDS011;62772;48.646;8.906;2023-03-15T14:18:15;3.33;;;2.50;;
4597;SDS011;62772;48.646;8.906;2023-03-15T14:23:21;6.03;;;2.40;;
4597;SDS011;62772;48.646;8.906;2023-03-15T14:28:24;6.00;;;2.43;;
4597;SDS011;62772;48.646;8.906;2023-03-15T14:33:29;4.80;;;2.40;;
4597;SDS011;62772;48.646;8.906;2023-03-15T14:38:36;5.33;;;2.33;;
4597;SDS011;62772;48.646;8.906;2023-03-15T14:43:37;5.60;;;2.40;;
4597;SDS011;62772;48.646;8.906;2023-03-15T14:48:38;4.87;;;2.70;;
4597;SDS011;62772;48.646;8.906;2023-03-15T14:53:39;4.60;;;2.47;;
4597;SDS011;62772;48.646;8.906;2023-03-15T14:58:41;5.77;;;2.77;;
4597;SDS011;62772;48.646;8.906;2023-03-15T15:03:42;6.20;;;2.70;;
4597;SDS011;62772;48.646;8.906;2023-03-15T15:08:54;4.67;;;2.63;;
4597;SDS011;62772;48.646;8.906;2023-03-15T15:13:56;7.23;;;3.30;;
4597;SDS011;62772;48.646;8.906;2023-03-15T15:18:57;8.00;;;3.50;;
4597;SDS011;62772;48.646;8.906;2023-03-15T15:23:57;7.90;;;3.47;;
4597;SDS011;62772;48.646;8.906;2023-03-15T15:28:58;5.07;;;3.03;;
4597;SDS011;62772;48.646;8.906;2023-03-15T15:33:59;4.50;;;3.10;;
4597;SDS011;62772;48.646;8.906;2023-03-15T15:39:01;6.17;;;3.33;;
4597;SDS011;62772;48.646;8.906;2023-03-15T15:44:03;5.07;;;3.00;;
4597;SDS011;62772;48.646;8.906;2023-03-15T15:49:15;5.90;;;3.20;;
4597;SDS011;62772;48.646;8.906;2023-03-15T15:54:17;4.50;;;3.20;;
4597;SDS011;62772;48.646;8.906;2023-03-15T15:59:19;4.67;;;3.17;;
4597;SDS011;62772;48.646;8.906;2023-03-15T16:04:20;7.80;;;3.17;;
4597;SDS011;62772;48.646;8.906;2023-03-15T16:09:20;4.33;;;2.93;;
4597;SDS011;62772;48.646;8.906;2023-03-15T16:14:22;4.57;;;3.20;;
4597;SDS011;62772;48.646;8.906;2023-03-15T16:19:22;6.00;;;3.60;;
4597;SDS011;62772;48.646;8.906;2023-03-15T16:24:25;4.53;;;3.40;;
4597;SDS011;62772;48.646;8.906;2023-03-15T16:29:46;7.10;;;3.77;;
4597;SDS011;62772;48.646;8.906;2023-03-15T16:34:48;6.10;;;3.77;;
4597;SDS011;62772;48.646;8.906;2023-03-15T16:39:52;8.60;;;4.30;;
4597;SDS011;62772;48.646;8.906;2023-03-15T16:44:54;8.20;;;4.50;;
4597;SDS011;62772;48.646;8.906;2023-03-15T16:49:55;8.40;;;4.67;;
4597;SDS011;62772;48.646;8.906;2023-03-15T16:54:55;7.30;;;4.27;;
4597;SDS011;62772;48.646;8.906;2023-03-15T16:59:56;6.93;;;3.73;;
4597;SDS011;62772;48.646;8.906;2023-03-15T17:04:56;14.17;;;6.07;;
4597;SDS011;62772;48.646;8.906;2023-03-15T17:09:57;7.63;;;4.83;;
4597;SDS011;62772;48.646;8.906;2023-03-15T17:15:02;7.70;;;4.70;;
4597;SDS011;62772;48.646;8.906;2023-03-15T17:20:04;6.80;;;4.10;;
4597;SDS011;62772;48.646;8.906;2023-03-15T17:25:12;8.60;;;4.60;;
4597;SDS011;62772;48.646;8.906;2023-03-15T17:30:45;10.17;;;5.17;;
4597;SDS011;62772;48.646;8.906;2023-03-15T17:35:41;10.90;;;5.20;;
4597;SDS011;62772;48.646;8.906;2023-03-15T17:40:43;13.93;;;5.93;;
4597;SDS011;62772;48.646;8.906;2023-03-15T17:45:44;12.03;;;6.07;;
4597;SDS011;62772;48.646;8.906;2023-03-15T17:50:44;10.40;;;6.40;;
4597;SDS011;62772;48.646;8.906;2023-03-15T17:55:45;10.23;;;5.73;;
4597;SDS011;62772;48.646;8.906;2023-03-15T18:00:47;9.20;;;6.03;;
4597;SDS011;62772;48.646;8.906;2023-03-15T18:05:49;8.50;;;5.17;;
4597;SDS011;62772;48.646;8.906;2023-03-15T18:10:50;9.57;;;5.50;;
4597;SDS011;62772;48.646;8.906;2023-03-15T18:15:51;8.60;;;5.70;;
4597;SDS011;62772;48.646;8.906;2023-03-15T18:20:51;9.60;;;6.50;;
4597;SDS011;62772;48.646;8.906;2023-03-15T18:25:53;11.00;;;6.60;;
4597;SDS011;62772;48.646;8.906;2023-03-15T18:30:53;9.63;;;6.03;;
4597;SDS011;62772;48.646;8.906;2023-03-15T18:35:53;15.90;;;6.83;;
4597;SDS011;62772;48.646;8.906;2023-03-15T18:40:54;6.90;;;4.63;;
4597;SDS011;62772;48.646;8.906;2023-03-15T18:45:56;9.53;;;5.90;;
4597;SDS011;62772;48.646;8.906;2023-03-15T18:50:56;10.60;;;5.37;;
4597;SDS011;62772;48.646;8.906;2023-03-15T18:55:57;8.17;;;4.43;;
4597;SDS011;62772;48.646;8.906;2023-03-15T19:00:58;18.33;;;9.37;;
4597;SDS011;62772;48.646;8.906;2023-03-15T19:06:02;35.57;;;15.40;;
4597;SDS011;62772;48.646;8.906;2023-03-15T19:11:07;36.13;;;16.47;;
4597;SDS011;62772;48.646;8.906;2023-03-15T19:16:09;28.27;;;12.73;;
4597;SDS011;62772;48.646;8.906;2023-03-15T19:21:10;21.60;;;10.10;;
4597;SDS011;62772;48.646;8.906;2023-03-15T19:26:10;17.20;;;8.83;;
4597;SDS011;62772;48.646;8.906;2023-03-15T19:31:12;22.20;;;9.70;;
4597;SDS011;62772;48.646;8.906;2023-03-15T19:36:13;25.33;;;9.60;;
4597;SDS011;62772;48.646;8.906;2023-03-15T19:41:13;22.10;;;11.80;;
4597;SDS011;62772;48.646;8.906;2023-03-15T19:46:14;24.43;;;13.90;;
4597;SDS011;62772;48.646;8.906;2023-03-15T19:51:16;26.60;;;14.77;;
4597;SDS011;62772;48.646;8.906;2023-03-15T19:56:16;28.37;;;14.87;;
4597;SDS011;62772;48.646;8.906;2023-03-15T20:01:17;26.40;;;14.57;;
4597;SDS011;62772;48.646;8.906;2023-03-15T20:06:17;24.77;;;14.17;;
4597;SDS011;62772;48.646;8.906;2023-03-15T20:11:18;19.23;;;11.50;;
4597;SDS011;62772;48.646;8.906;2023-03-15T20:16:24;19.47;;;10.10;;
4597;SDS011;62772;48.646;8.906;2023-03-15T20:21:24;15.57;;;9.70;;
4597;SDS011;62772;48.646;8.906;2023-03-15T20:26:25;18.67;;;10.50;;
4597;SDS011;62772;48.646;8.906;2023-03-15T20:31:25;16.40;;;9.03;;
4597;SDS011;62772;48.646;8.906;2023-03-15T20:36:26;13.73;;;7.90;;
4597;SDS011;62772;48.646;8.906;2023-03-15T20:41:27;11.20;;;7.53;;
4597;SDS011;62772;48.646;8.906;2023-03-15T20:46:27;17.50;;;7.80;;
4597;SDS011;62772;48.646;8.906;2023-03-15T20:51:28;13.60;;;7.50;;
4597;SDS011;62772;48.646;8.906;2023-03-15T20:56:28;12.67;;;7.97;;
4597;SDS011;62772;48.646;8.906;2023-03-15T21:01:29;14.63;;;7.87;;
4597;SDS011;62772;48.646;8.906;2023-03-15T21:06:31;14.23;;;7.50;;
4597;SDS011;62772;48.646;8.906;2023-03-15T21:11:31;13.63;;;7.53;;
4597;SDS011;62772;48.646;8.906;2023-03-15T21:16:32;20.63;;;11.57;;
4597;SDS011;62772;48.646;8.906;2023-03-15T21:21:32;13.50;;;7.50;;
4597;SDS011;62772;48.646;8.906;2023-03-15T21:26:33;12.67;;;7.30;;
4597;SDS011;62772;48.646;8.906;2023-03-15T21:31:34;9.93;;;6.80;;
4597;SDS011;62772;48.646;8.906;2023-03-15T21:36:35;12.23;;;7.40;;
4597;SDS011;62772;48.646;8.906;2023-03-15T21:41:35;14.07;;;8.13;;
4597;SDS011;62772;48.646;8.906;2023-03-15T21:46:37;11.60;;;6.30;;
4597;SDS011;62772;48.646;8.906;2023-03-15T21:51:37;11.67;;;7.43;;
4597;SDS011;62772;48.646;8.906;2023-03-15T21:56:38;13.17;;;7.87;;
4597;SDS011;62772;48.646;8.906;2023-03-15T22:01:39;13.50;;;7.30;;
4597;SDS011;62772;48.646;8.906;2023-03-15T22:06:39;13.23;;;7.97;;
4597;SDS011;62772;48.646;8.906;2023-03-15T22:11:40;15.97;;;9.17;;
4597;SDS011;62772;48.646;8.906;2023-03-15T22:16:40;30.23;;;14.50;;
4597;SDS011;62772;48.646;8.906;2023-03-15T22:21:40;23.73;;;12.37;;
4597;SDS011;62772;48.646;8.906;2023-03-15T22:26:41;15.97;;;9.50;;
4597;SDS011;62772;48.646;8.906;2023-03-15T22:31:45;19.70;;;10.10;;
4597;SDS011;62772;48.646;8.906;2023-03-15T22:36:45;30.33;;;13.13;;
4597;SDS011;62772;48.646;8.906;2023-03-15T22:41:46;24.40;;;11.10;;
4597;SDS011;62772;48.646;8.906;2023-03-15T22:46:46;17.23;;;9.60;;
4597;SDS011;62772;48.646;8.906;2023-03-15T22:51:47;13.03;;;8.10;;
4597;SDS011;62772;48.646;8.906;2023-03-15T22:56:47;13.37;;;8.47;;
4597;SDS011;62772;48.646;8.906;2023-03-15T23:01:47;14.30;;;8.53;;
4597;SDS011;62772;48.646;8.906;2023-03-15T23:06:48;14.50;;;8.30;;
4597;SDS011;62772;48.646;8.906;2023-03-15T23:11:49;15.93;;;9.37;;
4597;SDS011;62772;48.646;8.906;2023-03-15T23:16:50;18.67;;;10.20;;
4597;SDS011;62772;48.646;8.906;2023-03-15T23:21:51;19.70;;;9.47;;
4597;SDS011;62772;48.646;8.906;2023-03-15T23:26:52;13.20;;;8.17;;
4597;SDS011;62772;48.646;8.906;2023-03-15T23:31:55;13.00;;;8.07;;
4597;SDS011;62772;48.646;8.906;2023-03-15T23:36:56;13.43;;;8.10;;
4597;SDS011;62772;48.646;8.906;2023-03-15T23:41:56;15.93;;;8.40;;
4597;SDS011;62772;48.646;8.906;2023-03-15T23:46:57;14.90;;;8.30;;
4597;SDS011;62772;48.646;8.906;2023-03-15T23:52:01;13.63;;;7.80;;
4597;SDS011;62772;48.646;8.906;2023-03-15T23:57:04;23.33;;;10.67;;
